sensor_id;sensor_type;location;lat;lon;timestamp;P1;durP1;ratioP1;P2;durP2;ratioP2
44578;SDS011;37422;51.402;0.016;2022-11-20T00:01:31;23.85;;;8.93;;
44578;SDS011;37422;51.402;0.016;2022-11-20T00:03:59;20.45;;;8.25;;
44578;SDS011;37422;51.402;0.016;2022-11-20T00:06:27;26.98;;;8.90;;
44578;SDS011;37422;51.402;0.016;2022-11-20T00:08:57;24.55;;;10.25;;
44578;SDS011;37422;51.402;0.016;2022-11-20T00:11:28;29.08;;;10.10;;
44578;SDS011;37422;51.402;0.016;2022-11-20T00:13:56;20.35;;;9.00;;
44578;SDS011;37422;51.402;0.016;2022-11-20T00:16:30;28.73;;;10.93;;
44578;SDS011;37422;51.402;0.016;2022-11-20T00:18:59;25.63;;;9.93;;
44578;SDS011;37422;51.402;0.016;2022-11-20T00:21:27;20.08;;;7.65;;
44578;SDS011;37422;51.402;0.016;2022-11-20T00:23:55;22.38;;;9.95;;
44578;SDS011;37422;51.402;0.016;2022-11-20T00:26:24;20.35;;;8.38;;
44578;SDS011;37422;51.402;0.016;2022-11-20T00:28:57;23.00;;;9.45;;
44578;SDS011;37422;51.402;0.016;2022-11-20T00:31:28;19.52;;;7.80;;
44578;SDS011;37422;51.402;0.016;2022-11-20T00:33:57;19.65;;;8.05;;
44578;SDS011;37422;51.402;0.016;2022-11-20T00:36:25;23.20;;;10.25;;
44578;SDS011;37422;51.402;0.016;2022-11-20T00:38:55;24.65;;;8.48;;
44578;SDS011;37422;51.402;0.016;2022-11-20T00:41:25;18.52;;;8.23;;
44578;SDS011;37422;51.402;0.016;2022-11-20T00:43:54;19.67;;;8.27;;
44578;SDS011;37422;51.402;0.016;2022-11-20T00:46:24;21.52;;;9.75;;
44578;SDS011;37422;51.402;0.016;2022-11-20T00:48:53;26.35;;;9.70;;
44578;SDS011;37422;51.402;0.016;2022-11-20T00:51:22;24.60;;;9.48;;
44578;SDS011;37422;51.402;0.016;2022-11-20T00:53:51;19.02;;;8.80;;
44578;SDS011;37422;51.402;0.016;2022-11-20T00:56:19;23.90;;;8.25;;
44578;SDS011;37422;51.402;0.016;2022-11-20T00:58:48;22.95;;;9.63;;
44578;SDS011;37422;51.402;0.016;2022-11-20T01:01:17;23.73;;;8.52;;
44578;SDS011;37422;51.402;0.016;2022-11-20T01:03:48;18.95;;;7.82;;
44578;SDS011;37422;51.402;0.016;2022-11-20T01:06:18;19.98;;;8.75;;
44578;SDS011;37422;51.402;0.016;2022-11-20T01:08:49;19.83;;;8.75;;
44578;SDS011;37422;51.402;0.016;2022-11-20T01:11:23;29.10;;;8.23;;
44578;SDS011;37422;51.402;0.016;2022-11-20T01:13:52;23.67;;;9.02;;
44578;SDS011;37422;51.402;0.016;2022-11-20T01:16:22;20.13;;;8.70;;
44578;SDS011;37422;51.402;0.016;2022-11-20T01:18:51;24.90;;;9.63;;
44578;SDS011;37422;51.402;0.016;2022-11-20T01:21:21;20.63;;;8.65;;
44578;SDS011;37422;51.402;0.016;2022-11-20T01:23:56;24.20;;;10.27;;
44578;SDS011;37422;51.402;0.016;2022-11-20T01:26:26;22.20;;;9.38;;
44578;SDS011;37422;51.402;0.016;2022-11-20T01:28:59;23.60;;;9.50;;
44578;SDS011;37422;51.402;0.016;2022-11-20T01:31:29;21.35;;;8.23;;
44578;SDS011;37422;51.402;0.016;2022-11-20T01:33:59;26.95;;;11.18;;
44578;SDS011;37422;51.402;0.016;2022-11-20T01:36:30;19.98;;;8.70;;
44578;SDS011;37422;51.402;0.016;2022-11-20T01:39:00;20.08;;;8.13;;
44578;SDS011;37422;51.402;0.016;2022-11-20T01:41:30;19.85;;;7.57;;
44578;SDS011;37422;51.402;0.016;2022-11-20T01:44:18;18.85;;;7.53;;
44578;SDS011;37422;51.402;0.016;2022-11-20T01:49:31;27.20;;;7.57;;
44578;SDS011;37422;51.402;0.016;2022-11-20T01:52:30;26.45;;;8.80;;
44578;SDS011;37422;51.402;0.016;2022-11-20T01:58:12;22.48;;;7.70;;
44578;SDS011;37422;51.402;0.016;2022-11-20T02:00:41;22.40;;;7.00;;
44578;SDS011;37422;51.402;0.016;2022-11-20T02:03:11;22.00;;;8.50;;
44578;SDS011;37422;51.402;0.016;2022-11-20T02:05:43;20.73;;;7.85;;
44578;SDS011;37422;51.402;0.016;2022-11-20T02:08:35;21.55;;;7.28;;
44578;SDS011;37422;51.402;0.016;2022-11-20T02:11:04;20.40;;;7.95;;
44578;SDS011;37422;51.402;0.016;2022-11-20T02:13:32;20.50;;;7.03;;
44578;SDS011;37422;51.402;0.016;2022-11-20T02:16:26;17.10;;;7.57;;
44578;SDS011;37422;51.402;0.016;2022-11-20T02:18:58;21.75;;;6.40;;
44578;SDS011;37422;51.402;0.016;2022-11-20T02:24:15;18.33;;;6.63;;
44578;SDS011;37422;51.402;0.016;2022-11-20T02:29:16;16.70;;;5.75;;
44578;SDS011;37422;51.402;0.016;2022-11-20T02:31:51;19.77;;;6.43;;
44578;SDS011;37422;51.402;0.016;2022-11-20T02:34:21;16.63;;;6.28;;
44578;SDS011;37422;51.402;0.016;2022-11-20T02:36:49;17.05;;;5.57;;
44578;SDS011;37422;51.402;0.016;2022-11-20T02:39:19;16.38;;;6.50;;
44578;SDS011;37422;51.402;0.016;2022-11-20T02:41:50;15.80;;;5.40;;
44578;SDS011;37422;51.402;0.016;2022-11-20T02:44:23;13.43;;;3.65;;
44578;SDS011;37422;51.402;0.016;2022-11-20T02:46:50;11.02;;;3.20;;
44578;SDS011;37422;51.402;0.016;2022-11-20T02:49:18;11.25;;;4.22;;
44578;SDS011;37422;51.402;0.016;2022-11-20T02:51:46;9.63;;;2.90;;
44578;SDS011;37422;51.402;0.016;2022-11-20T02:54:14;9.85;;;3.92;;
44578;SDS011;37422;51.402;0.016;2022-11-20T02:56:41;11.63;;;4.13;;
44578;SDS011;37422;51.402;0.016;2022-11-20T02:59:10;12.65;;;3.65;;
44578;SDS011;37422;51.402;0.016;2022-11-20T03:01:38;10.10;;;3.50;;
44578;SDS011;37422;51.402;0.016;2022-11-20T03:04:05;11.82;;;2.92;;
44578;SDS011;37422;51.402;0.016;2022-11-20T03:06:33;9.00;;;2.75;;
44578;SDS011;37422;51.402;0.016;2022-11-20T03:09:01;12.20;;;3.42;;
44578;SDS011;37422;51.402;0.016;2022-11-20T03:11:29;15.85;;;3.75;;
44578;SDS011;37422;51.402;0.016;2022-11-20T03:13:56;11.25;;;3.30;;
44578;SDS011;37422;51.402;0.016;2022-11-20T03:16:24;7.18;;;2.83;;
44578;SDS011;37422;51.402;0.016;2022-11-20T03:18:52;7.22;;;2.85;;
44578;SDS011;37422;51.402;0.016;2022-11-20T03:21:20;7.32;;;2.80;;
44578;SDS011;37422;51.402;0.016;2022-11-20T03:23:48;10.48;;;3.28;;
44578;SDS011;37422;51.402;0.016;2022-11-20T03:26:20;10.93;;;2.83;;
44578;SDS011;37422;51.402;0.016;2022-11-20T03:28:56;9.20;;;2.80;;
44578;SDS011;37422;51.402;0.016;2022-11-20T03:31:27;10.50;;;2.42;;
44578;SDS011;37422;51.402;0.016;2022-11-20T03:33:57;10.00;;;2.75;;
44578;SDS011;37422;51.402;0.016;2022-11-20T03:36:26;13.18;;;4.13;;
44578;SDS011;37422;51.402;0.016;2022-11-20T03:38:54;10.77;;;3.03;;
44578;SDS011;37422;51.402;0.016;2022-11-20T03:41:24;7.70;;;2.30;;
44578;SDS011;37422;51.402;0.016;2022-11-20T03:43:57;8.85;;;2.45;;
44578;SDS011;37422;51.402;0.016;2022-11-20T03:46:27;9.23;;;2.55;;
44578;SDS011;37422;51.402;0.016;2022-11-20T03:48:55;11.25;;;2.80;;
44578;SDS011;37422;51.402;0.016;2022-11-20T03:51:27;10.40;;;3.35;;
44578;SDS011;37422;51.402;0.016;2022-11-20T03:53:58;8.63;;;3.20;;
44578;SDS011;37422;51.402;0.016;2022-11-20T03:56:31;7.28;;;2.40;;
44578;SDS011;37422;51.402;0.016;2022-11-20T03:59:00;15.60;;;3.38;;
44578;SDS011;37422;51.402;0.016;2022-11-20T04:01:32;11.35;;;2.95;;
44578;SDS011;37422;51.402;0.016;2022-11-20T04:04:01;12.60;;;3.30;;
44578;SDS011;37422;51.402;0.016;2022-11-20T04:06:32;13.18;;;3.03;;
44578;SDS011;37422;51.402;0.016;2022-11-20T04:09:02;6.75;;;2.60;;
44578;SDS011;37422;51.402;0.016;2022-11-20T04:11:31;8.43;;;3.35;;
44578;SDS011;37422;51.402;0.016;2022-11-20T04:14:02;16.55;;;5.45;;
44578;SDS011;37422;51.402;0.016;2022-11-20T04:16:31;6.80;;;3.17;;
44578;SDS011;37422;51.402;0.016;2022-11-20T04:19:02;9.90;;;3.40;;
44578;SDS011;37422;51.402;0.016;2022-11-20T04:21:31;11.10;;;2.72;;
44578;SDS011;37422;51.402;0.016;2022-11-20T04:23:59;10.90;;;3.88;;
44578;SDS011;37422;51.402;0.016;2022-11-20T04:26:27;8.73;;;2.80;;
44578;SDS011;37422;51.402;0.016;2022-11-20T04:28:57;13.07;;;3.65;;
44578;SDS011;37422;51.402;0.016;2022-11-20T04:31:26;9.50;;;3.90;;
44578;SDS011;37422;51.402;0.016;2022-11-20T04:33:58;13.50;;;3.55;;
44578;SDS011;37422;51.402;0.016;2022-11-20T04:36:28;9.77;;;3.42;;
44578;SDS011;37422;51.402;0.016;2022-11-20T04:38:57;13.00;;;4.05;;
44578;SDS011;37422;51.402;0.016;2022-11-20T04:41:28;7.35;;;3.58;;
44578;SDS011;37422;51.402;0.016;2022-11-20T04:46:34;14.35;;;3.60;;
44578;SDS011;37422;51.402;0.016;2022-11-20T04:49:03;12.07;;;3.65;;
44578;SDS011;37422;51.402;0.016;2022-11-20T04:51:31;8.60;;;3.92;;
44578;SDS011;37422;51.402;0.016;2022-11-20T04:53:59;12.95;;;3.95;;
44578;SDS011;37422;51.402;0.016;2022-11-20T04:56:27;14.50;;;3.85;;
44578;SDS011;37422;51.402;0.016;2022-11-20T04:58:55;12.48;;;4.03;;
44578;SDS011;37422;51.402;0.016;2022-11-20T05:01:26;10.70;;;3.67;;
44578;SDS011;37422;51.402;0.016;2022-11-20T05:03:54;10.63;;;4.03;;
44578;SDS011;37422;51.402;0.016;2022-11-20T05:06:21;11.85;;;3.50;;
44578;SDS011;37422;51.402;0.016;2022-11-20T05:08:50;14.57;;;4.85;;
44578;SDS011;37422;51.402;0.016;2022-11-20T05:11:18;10.80;;;3.90;;
44578;SDS011;37422;51.402;0.016;2022-11-20T05:13:47;11.48;;;3.95;;
44578;SDS011;37422;51.402;0.016;2022-11-20T05:16:16;14.95;;;4.07;;
44578;SDS011;37422;51.402;0.016;2022-11-20T05:18:46;19.23;;;4.32;;
44578;SDS011;37422;51.402;0.016;2022-11-20T05:21:14;10.02;;;4.00;;
44578;SDS011;37422;51.402;0.016;2022-11-20T05:23:43;14.98;;;4.32;;
44578;SDS011;37422;51.402;0.016;2022-11-20T05:26:12;10.05;;;4.15;;
44578;SDS011;37422;51.402;0.016;2022-11-20T05:28:45;16.42;;;4.40;;
44578;SDS011;37422;51.402;0.016;2022-11-20T05:31:15;13.70;;;3.60;;
44578;SDS011;37422;51.402;0.016;2022-11-20T05:33:53;6.00;;;3.00;;
44578;SDS011;37422;51.402;0.016;2022-11-20T05:36:21;10.00;;;2.95;;
44578;SDS011;37422;51.402;0.016;2022-11-20T05:38:49;13.32;;;3.78;;
44578;SDS011;37422;51.402;0.016;2022-11-20T05:41:19;10.75;;;3.67;;
44578;SDS011;37422;51.402;0.016;2022-11-20T05:43:49;11.60;;;3.70;;
44578;SDS011;37422;51.402;0.016;2022-11-20T05:46:18;10.57;;;3.35;;
44578;SDS011;37422;51.402;0.016;2022-11-20T05:48:55;9.95;;;3.33;;
44578;SDS011;37422;51.402;0.016;2022-11-20T05:51:24;12.00;;;3.50;;
44578;SDS011;37422;51.402;0.016;2022-11-20T05:53:52;12.15;;;3.75;;
44578;SDS011;37422;51.402;0.016;2022-11-20T05:56:20;9.77;;;4.13;;
44578;SDS011;37422;51.402;0.016;2022-11-20T05:58:48;10.73;;;3.95;;
44578;SDS011;37422;51.402;0.016;2022-11-20T06:01:20;8.90;;;3.22;;
44578;SDS011;37422;51.402;0.016;2022-11-20T06:03:49;15.38;;;3.97;;
44578;SDS011;37422;51.402;0.016;2022-11-20T06:06:18;8.57;;;3.83;;
44578;SDS011;37422;51.402;0.016;2022-11-20T06:08:47;13.85;;;3.85;;
44578;SDS011;37422;51.402;0.016;2022-11-20T06:11:15;11.65;;;3.88;;
44578;SDS011;37422;51.402;0.016;2022-11-20T06:13:44;11.20;;;3.70;;
44578;SDS011;37422;51.402;0.016;2022-11-20T06:16:13;9.27;;;3.78;;
44578;SDS011;37422;51.402;0.016;2022-11-20T06:18:43;15.07;;;5.07;;
44578;SDS011;37422;51.402;0.016;2022-11-20T06:21:11;9.63;;;3.75;;
44578;SDS011;37422;51.402;0.016;2022-11-20T06:23:44;11.68;;;4.15;;
44578;SDS011;37422;51.402;0.016;2022-11-20T06:26:13;13.90;;;4.57;;
44578;SDS011;37422;51.402;0.016;2022-11-20T06:28:45;12.10;;;4.40;;
44578;SDS011;37422;51.402;0.016;2022-11-20T06:31:14;12.50;;;4.20;;
44578;SDS011;37422;51.402;0.016;2022-11-20T06:33:43;12.32;;;5.28;;
44578;SDS011;37422;51.402;0.016;2022-11-20T06:36:12;14.15;;;4.95;;
44578;SDS011;37422;51.402;0.016;2022-11-20T06:38:41;8.70;;;4.03;;
44578;SDS011;37422;51.402;0.016;2022-11-20T06:41:10;9.27;;;4.63;;
44578;SDS011;37422;51.402;0.016;2022-11-20T06:46:08;12.60;;;3.95;;
44578;SDS011;37422;51.402;0.016;2022-11-20T06:48:42;18.70;;;4.57;;
44578;SDS011;37422;51.402;0.016;2022-11-20T06:51:10;10.93;;;4.22;;
44578;SDS011;37422;51.402;0.016;2022-11-20T06:53:38;14.30;;;4.80;;
44578;SDS011;37422;51.402;0.016;2022-11-20T06:56:06;15.38;;;4.40;;
44578;SDS011;37422;51.402;0.016;2022-11-20T06:58:34;15.35;;;4.40;;
44578;SDS011;37422;51.402;0.016;2022-11-20T07:01:06;14.32;;;4.30;;
44578;SDS011;37422;51.402;0.016;2022-11-20T07:03:38;13.07;;;4.40;;
44578;SDS011;37422;51.402;0.016;2022-11-20T07:06:06;9.38;;;4.18;;
44578;SDS011;37422;51.402;0.016;2022-11-20T07:08:36;13.07;;;4.85;;
44578;SDS011;37422;51.402;0.016;2022-11-20T07:11:04;7.55;;;3.42;;
44578;SDS011;37422;51.402;0.016;2022-11-20T07:13:33;9.68;;;3.70;;
44578;SDS011;37422;51.402;0.016;2022-11-20T07:16:02;9.15;;;4.35;;
44578;SDS011;37422;51.402;0.016;2022-11-20T07:21:03;8.13;;;4.25;;
44578;SDS011;37422;51.402;0.016;2022-11-20T07:23:37;7.63;;;3.35;;
44578;SDS011;37422;51.402;0.016;2022-11-20T07:26:08;11.73;;;3.38;;
44578;SDS011;37422;51.402;0.016;2022-11-20T07:28:38;6.55;;;3.10;;
44578;SDS011;37422;51.402;0.016;2022-11-20T07:31:06;7.88;;;3.00;;
44578;SDS011;37422;51.402;0.016;2022-11-20T07:33:34;8.35;;;2.85;;
44578;SDS011;37422;51.402;0.016;2022-11-20T07:36:02;6.78;;;3.40;;
44578;SDS011;37422;51.402;0.016;2022-11-20T07:38:30;7.80;;;2.92;;
44578;SDS011;37422;51.402;0.016;2022-11-20T07:40:58;8.95;;;3.10;;
44578;SDS011;37422;51.402;0.016;2022-11-20T07:43:28;6.93;;;3.28;;
44578;SDS011;37422;51.402;0.016;2022-11-20T07:45:57;7.60;;;2.97;;
44578;SDS011;37422;51.402;0.016;2022-11-20T07:48:26;6.90;;;2.80;;
44578;SDS011;37422;51.402;0.016;2022-11-20T07:50:56;8.23;;;3.40;;
44578;SDS011;37422;51.402;0.016;2022-11-20T07:53:24;10.82;;;3.55;;
44578;SDS011;37422;51.402;0.016;2022-11-20T07:55:52;17.00;;;7.75;;
44578;SDS011;37422;51.402;0.016;2022-11-20T07:58:20;16.02;;;7.57;;
44578;SDS011;37422;51.402;0.016;2022-11-20T08:00:48;12.77;;;5.70;;
44578;SDS011;37422;51.402;0.016;2022-11-20T08:03:16;10.07;;;3.65;;
44578;SDS011;37422;51.402;0.016;2022-11-20T08:05:51;8.75;;;3.30;;
44578;SDS011;37422;51.402;0.016;2022-11-20T08:08:19;7.55;;;4.18;;
44578;SDS011;37422;51.402;0.016;2022-11-20T08:10:47;7.72;;;4.18;;
44578;SDS011;37422;51.402;0.016;2022-11-20T08:13:15;19.20;;;9.13;;
44578;SDS011;37422;51.402;0.016;2022-11-20T08:16:01;14.57;;;6.75;;
44578;SDS011;37422;51.402;0.016;2022-11-20T08:18:29;17.85;;;8.65;;
44578;SDS011;37422;51.402;0.016;2022-11-20T08:21:02;17.58;;;9.23;;
44578;SDS011;37422;51.402;0.016;2022-11-20T08:23:31;28.25;;;16.52;;
44578;SDS011;37422;51.402;0.016;2022-11-20T08:25:59;29.48;;;18.20;;
44578;SDS011;37422;51.402;0.016;2022-11-20T08:28:27;37.55;;;18.23;;
44578;SDS011;37422;51.402;0.016;2022-11-20T08:31:01;25.60;;;13.88;;
44578;SDS011;37422;51.402;0.016;2022-11-20T08:33:29;18.38;;;8.38;;
44578;SDS011;37422;51.402;0.016;2022-11-20T08:36:00;11.10;;;4.68;;
44578;SDS011;37422;51.402;0.016;2022-11-20T08:38:29;5.80;;;3.30;;
44578;SDS011;37422;51.402;0.016;2022-11-20T08:40:58;8.35;;;3.67;;
44578;SDS011;37422;51.402;0.016;2022-11-20T08:43:46;7.22;;;2.88;;
44578;SDS011;37422;51.402;0.016;2022-11-20T08:46:13;7.53;;;3.60;;
44578;SDS011;37422;51.402;0.016;2022-11-20T08:48:41;9.40;;;3.63;;
44578;SDS011;37422;51.402;0.016;2022-11-20T08:51:09;9.73;;;3.83;;
44578;SDS011;37422;51.402;0.016;2022-11-20T08:53:38;10.02;;;3.60;;
44578;SDS011;37422;51.402;0.016;2022-11-20T08:56:06;12.30;;;4.63;;
44578;SDS011;37422;51.402;0.016;2022-11-20T08:58:37;7.55;;;3.65;;
44578;SDS011;37422;51.402;0.016;2022-11-20T09:06:39;9.80;;;4.30;;
44578;SDS011;37422;51.402;0.016;2022-11-20T09:09:07;10.18;;;5.03;;
44578;SDS011;37422;51.402;0.016;2022-11-20T09:11:34;11.80;;;4.72;;
44578;SDS011;37422;51.402;0.016;2022-11-20T09:14:03;11.82;;;4.90;;
44578;SDS011;37422;51.402;0.016;2022-11-20T09:16:31;13.10;;;4.75;;
44578;SDS011;37422;51.402;0.016;2022-11-20T09:18:59;11.40;;;4.63;;
44578;SDS011;37422;51.402;0.016;2022-11-20T09:21:46;9.88;;;4.30;;
44578;SDS011;37422;51.402;0.016;2022-11-20T09:24:14;9.43;;;4.50;;
44578;SDS011;37422;51.402;0.016;2022-11-20T09:26:42;12.40;;;5.40;;
44578;SDS011;37422;51.402;0.016;2022-11-20T09:29:10;13.00;;;4.28;;
44578;SDS011;37422;51.402;0.016;2022-11-20T09:31:38;9.88;;;4.45;;
44578;SDS011;37422;51.402;0.016;2022-11-20T09:34:05;14.40;;;5.10;;
44578;SDS011;37422;51.402;0.016;2022-11-20T09:36:33;13.18;;;5.97;;
44578;SDS011;37422;51.402;0.016;2022-11-20T09:39:01;21.10;;;7.07;;
44578;SDS011;37422;51.402;0.016;2022-11-20T09:47:11;14.30;;;6.07;;
44578;SDS011;37422;51.402;0.016;2022-11-20T09:50:35;20.05;;;5.60;;
44578;SDS011;37422;51.402;0.016;2022-11-20T09:55:40;14.32;;;7.10;;
44578;SDS011;37422;51.402;0.016;2022-11-20T09:58:12;13.40;;;4.35;;
44578;SDS011;37422;51.402;0.016;2022-11-20T10:00:56;12.82;;;4.97;;
44578;SDS011;37422;51.402;0.016;2022-11-20T10:03:37;12.63;;;4.10;;
44578;SDS011;37422;51.402;0.016;2022-11-20T10:06:15;13.60;;;4.57;;
44578;SDS011;37422;51.402;0.016;2022-11-20T10:08:47;16.15;;;5.35;;
44578;SDS011;37422;51.402;0.016;2022-11-20T10:14:58;16.73;;;6.80;;
44578;SDS011;37422;51.402;0.016;2022-11-20T10:23:25;13.38;;;5.20;;
44578;SDS011;37422;51.402;0.016;2022-11-20T10:26:02;18.15;;;5.45;;
44578;SDS011;37422;51.402;0.016;2022-11-20T10:31:41;13.52;;;3.95;;
44578;SDS011;37422;51.402;0.016;2022-11-20T10:37:09;13.05;;;4.47;;
44578;SDS011;37422;51.402;0.016;2022-11-20T10:42:22;17.15;;;4.20;;
44578;SDS011;37422;51.402;0.016;2022-11-20T10:45:02;18.38;;;3.70;;
44578;SDS011;37422;51.402;0.016;2022-11-20T10:47:58;11.98;;;2.97;;
44578;SDS011;37422;51.402;0.016;2022-11-20T10:50:32;12.07;;;5.15;;
44578;SDS011;37422;51.402;0.016;2022-11-20T10:56:05;12.50;;;3.38;;
44578;SDS011;37422;51.402;0.016;2022-11-20T11:01:54;9.77;;;2.95;;
44578;SDS011;37422;51.402;0.016;2022-11-20T11:04:38;17.15;;;4.50;;
44578;SDS011;37422;51.402;0.016;2022-11-20T11:07:30;19.27;;;3.55;;
44578;SDS011;37422;51.402;0.016;2022-11-20T11:10:43;10.05;;;2.35;;
44578;SDS011;37422;51.402;0.016;2022-11-20T11:13:02;17.10;;;4.03;;
44578;SDS011;37422;51.402;0.016;2022-11-20T11:15:40;13.88;;;3.33;;
44578;SDS011;37422;51.402;0.016;2022-11-20T11:18:08;17.55;;;3.67;;
44578;SDS011;37422;51.402;0.016;2022-11-20T11:20:37;14.70;;;3.53;;
44578;SDS011;37422;51.402;0.016;2022-11-20T11:23:10;17.52;;;3.92;;
44578;SDS011;37422;51.402;0.016;2022-11-20T11:26:20;18.48;;;3.55;;
44578;SDS011;37422;51.402;0.016;2022-11-20T11:28:57;15.00;;;3.20;;
44578;SDS011;37422;51.402;0.016;2022-11-20T11:31:27;20.95;;;3.88;;
44578;SDS011;37422;51.402;0.016;2022-11-20T11:36:39;16.48;;;4.03;;
44578;SDS011;37422;51.402;0.016;2022-11-20T11:39:12;18.38;;;3.63;;
44578;SDS011;37422;51.402;0.016;2022-11-20T11:41:44;16.77;;;3.33;;
44578;SDS011;37422;51.402;0.016;2022-11-20T11:44:15;15.07;;;3.53;;
44578;SDS011;37422;51.402;0.016;2022-11-20T11:47:26;18.98;;;4.10;;
44578;SDS011;37422;51.402;0.016;2022-11-20T11:58:09;21.67;;;3.65;;
44578;SDS011;37422;51.402;0.016;2022-11-20T12:00:47;15.50;;;3.40;;
44578;SDS011;37422;51.402;0.016;2022-11-20T12:03:35;24.55;;;4.22;;
44578;SDS011;37422;51.402;0.016;2022-11-20T12:06:06;14.75;;;3.95;;
44578;SDS011;37422;51.402;0.016;2022-11-20T12:17:04;22.75;;;4.25;;
44578;SDS011;37422;51.402;0.016;2022-11-20T12:19:35;21.00;;;4.13;;
44578;SDS011;37422;51.402;0.016;2022-11-20T12:22:28;17.05;;;3.38;;
44578;SDS011;37422;51.402;0.016;2022-11-20T12:28:04;23.67;;;4.30;;
44578;SDS011;37422;51.402;0.016;2022-11-20T12:30:38;22.95;;;3.78;;
44578;SDS011;37422;51.402;0.016;2022-11-20T12:36:19;23.35;;;4.05;;
44578;SDS011;37422;51.402;0.016;2022-11-20T12:45:02;16.35;;;3.67;;
44578;SDS011;37422;51.402;0.016;2022-11-20T12:56:30;20.33;;;3.60;;
44578;SDS011;37422;51.402;0.016;2022-11-20T13:02:13;22.55;;;4.18;;
44578;SDS011;37422;51.402;0.016;2022-11-20T13:04:59;20.27;;;3.90;;
44578;SDS011;37422;51.402;0.016;2022-11-20T13:07:41;16.25;;;3.38;;
44578;SDS011;37422;51.402;0.016;2022-11-20T13:10:14;24.38;;;4.28;;
44578;SDS011;37422;51.402;0.016;2022-11-20T13:13:11;21.13;;;4.43;;
44578;SDS011;37422;51.402;0.016;2022-11-20T13:15:51;21.73;;;5.38;;
44578;SDS011;37422;51.402;0.016;2022-11-20T13:18:39;21.70;;;4.72;;
44578;SDS011;37422;51.402;0.016;2022-11-20T13:21:13;24.05;;;4.10;;
44578;SDS011;37422;51.402;0.016;2022-11-20T13:23:42;19.58;;;3.92;;
44578;SDS011;37422;51.402;0.016;2022-11-20T13:26:15;24.45;;;4.85;;
44578;SDS011;37422;51.402;0.016;2022-11-20T13:28:45;25.55;;;5.13;;
44578;SDS011;37422;51.402;0.016;2022-11-20T13:34:02;24.73;;;5.47;;
44578;SDS011;37422;51.402;0.016;2022-11-20T13:36:32;21.20;;;5.30;;
44578;SDS011;37422;51.402;0.016;2022-11-20T13:39:02;23.13;;;4.68;;
44578;SDS011;37422;51.402;0.016;2022-11-20T13:41:31;19.85;;;3.72;;
44578;SDS011;37422;51.402;0.016;2022-11-20T13:47:02;21.88;;;3.78;;
44578;SDS011;37422;51.402;0.016;2022-11-20T13:54:51;21.52;;;4.75;;
44578;SDS011;37422;51.402;0.016;2022-11-20T14:00:16;18.25;;;3.35;;
44578;SDS011;37422;51.402;0.016;2022-11-20T14:06:05;13.95;;;3.10;;
44578;SDS011;37422;51.402;0.016;2022-11-20T14:08:42;26.70;;;4.38;;
44578;SDS011;37422;51.402;0.016;2022-11-20T14:11:18;18.50;;;4.30;;
44578;SDS011;37422;51.402;0.016;2022-11-20T14:16:26;17.27;;;3.53;;
44578;SDS011;37422;51.402;0.016;2022-11-20T14:18:56;19.92;;;4.28;;
44578;SDS011;37422;51.402;0.016;2022-11-20T14:21:25;22.70;;;3.92;;
44578;SDS011;37422;51.402;0.016;2022-11-20T14:24:05;20.48;;;5.53;;
44578;SDS011;37422;51.402;0.016;2022-11-20T14:26:33;25.40;;;5.38;;
44578;SDS011;37422;51.402;0.016;2022-11-20T14:29:01;19.50;;;3.83;;
44578;SDS011;37422;51.402;0.016;2022-11-20T14:31:29;22.90;;;3.63;;
44578;SDS011;37422;51.402;0.016;2022-11-20T14:33:57;22.77;;;3.33;;
44578;SDS011;37422;51.402;0.016;2022-11-20T14:36:25;22.15;;;4.50;;
44578;SDS011;37422;51.402;0.016;2022-11-20T14:38:56;17.08;;;4.20;;
44578;SDS011;37422;51.402;0.016;2022-11-20T14:41:24;26.35;;;5.10;;
44578;SDS011;37422;51.402;0.016;2022-11-20T14:43:57;21.10;;;5.10;;
44578;SDS011;37422;51.402;0.016;2022-11-20T14:46:26;22.77;;;4.22;;
44578;SDS011;37422;51.402;0.016;2022-11-20T14:48:55;31.92;;;6.47;;
44578;SDS011;37422;51.402;0.016;2022-11-20T14:51:34;21.48;;;3.97;;
44578;SDS011;37422;51.402;0.016;2022-11-20T14:54:09;16.88;;;3.97;;
44578;SDS011;37422;51.402;0.016;2022-11-20T14:56:41;18.75;;;4.55;;
44578;SDS011;37422;51.402;0.016;2022-11-20T14:59:09;21.98;;;3.80;;
44578;SDS011;37422;51.402;0.016;2022-11-20T15:01:37;22.20;;;4.47;;
44578;SDS011;37422;51.402;0.016;2022-11-20T15:04:05;23.65;;;4.10;;
44578;SDS011;37422;51.402;0.016;2022-11-20T15:06:37;17.98;;;4.05;;
44578;SDS011;37422;51.402;0.016;2022-11-20T15:09:19;19.40;;;4.18;;
44578;SDS011;37422;51.402;0.016;2022-11-20T15:11:56;21.75;;;4.63;;
44578;SDS011;37422;51.402;0.016;2022-11-20T15:14:27;24.33;;;5.30;;
44578;SDS011;37422;51.402;0.016;2022-11-20T15:16:59;19.95;;;4.80;;
44578;SDS011;37422;51.402;0.016;2022-11-20T15:19:28;24.02;;;7.38;;
44578;SDS011;37422;51.402;0.016;2022-11-20T15:21:56;20.95;;;6.93;;
44578;SDS011;37422;51.402;0.016;2022-11-20T15:24:24;24.13;;;11.85;;
44578;SDS011;37422;51.402;0.016;2022-11-20T15:26:52;29.05;;;11.10;;
44578;SDS011;37422;51.402;0.016;2022-11-20T15:29:21;41.40;;;26.08;;
44578;SDS011;37422;51.402;0.016;2022-11-20T15:31:51;29.63;;;12.95;;
44578;SDS011;37422;51.402;0.016;2022-11-20T15:34:20;27.40;;;9.88;;
44578;SDS011;37422;51.402;0.016;2022-11-20T15:36:49;38.88;;;14.57;;
44578;SDS011;37422;51.402;0.016;2022-11-20T15:39:16;26.45;;;9.13;;
44578;SDS011;37422;51.402;0.016;2022-11-20T15:41:45;66.63;;;34.40;;
44578;SDS011;37422;51.402;0.016;2022-11-20T15:44:13;150.10;;;81.60;;
44578;SDS011;37422;51.402;0.016;2022-11-20T15:46:41;110.53;;;62.95;;
44578;SDS011;37422;51.402;0.016;2022-11-20T15:49:12;66.25;;;40.08;;
44578;SDS011;37422;51.402;0.016;2022-11-20T15:51:46;39.72;;;20.00;;
44578;SDS011;37422;51.402;0.016;2022-11-20T15:54:19;26.70;;;11.27;;
44578;SDS011;37422;51.402;0.016;2022-11-20T15:56:49;30.65;;;10.23;;
44578;SDS011;37422;51.402;0.016;2022-11-20T15:59:20;31.55;;;9.98;;
44578;SDS011;37422;51.402;0.016;2022-11-20T16:01:49;27.48;;;13.10;;
44578;SDS011;37422;51.402;0.016;2022-11-20T16:04:17;30.33;;;15.38;;
44578;SDS011;37422;51.402;0.016;2022-11-20T16:06:49;26.95;;;12.65;;
44578;SDS011;37422;51.402;0.016;2022-11-20T16:09:16;23.65;;;9.65;;
44578;SDS011;37422;51.402;0.016;2022-11-20T16:14:14;27.63;;;8.98;;
44578;SDS011;37422;51.402;0.016;2022-11-20T16:17:01;28.27;;;7.32;;
44578;SDS011;37422;51.402;0.016;2022-11-20T16:19:32;20.55;;;7.68;;
44578;SDS011;37422;51.402;0.016;2022-11-20T16:22:00;23.00;;;7.47;;
44578;SDS011;37422;51.402;0.016;2022-11-20T16:24:29;22.05;;;8.02;;
44578;SDS011;37422;51.402;0.016;2022-11-20T16:26:57;23.30;;;4.72;;
44578;SDS011;37422;51.402;0.016;2022-11-20T16:29:25;22.80;;;4.82;;
44578;SDS011;37422;51.402;0.016;2022-11-20T16:31:52;27.35;;;12.27;;
44578;SDS011;37422;51.402;0.016;2022-11-20T16:34:20;22.25;;;9.68;;
44578;SDS011;37422;51.402;0.016;2022-11-20T16:36:48;29.13;;;10.80;;
44578;SDS011;37422;51.402;0.016;2022-11-20T16:39:15;27.70;;;14.88;;
44578;SDS011;37422;51.402;0.016;2022-11-20T16:41:49;24.67;;;9.30;;
44578;SDS011;37422;51.402;0.016;2022-11-20T16:44:17;37.92;;;16.80;;
44578;SDS011;37422;51.402;0.016;2022-11-20T16:46:45;31.35;;;12.95;;
44578;SDS011;37422;51.402;0.016;2022-11-20T16:49:13;22.65;;;9.60;;
44578;SDS011;37422;51.402;0.016;2022-11-20T16:51:41;26.75;;;13.07;;
44578;SDS011;37422;51.402;0.016;2022-11-20T16:54:09;22.65;;;7.03;;
44578;SDS011;37422;51.402;0.016;2022-11-20T16:56:44;22.98;;;8.20;;
44578;SDS011;37422;51.402;0.016;2022-11-20T16:59:13;22.23;;;7.55;;
44578;SDS011;37422;51.402;0.016;2022-11-20T17:01:41;25.70;;;8.52;;
44578;SDS011;37422;51.402;0.016;2022-11-20T17:04:10;29.65;;;14.00;;